sensor_id;sensor_type;location;lat;lon;timestamp;P1;durP1;ratioP1;P2;durP2;ratioP2
27213;SDS011;14723;55.814;37.460;2022-12-07T00:02:55;9.50;;;2.58;;
27213;SDS011;14723;55.814;37.460;2022-12-07T00:06:01;7.57;;;3.03;;
27213;SDS011;14723;55.814;37.460;2022-12-07T00:09:09;6.63;;;2.90;;
27213;SDS011;14723;55.814;37.460;2022-12-07T00:12:15;6.05;;;2.90;;
27213;SDS011;14723;55.814;37.460;2022-12-07T00:15:23;7.20;;;2.85;;
27213;SDS011;14723;55.814;37.460;2022-12-07T00:18:29;8.77;;;3.00;;
27213;SDS011;14723;55.814;37.460;2022-12-07T00:21:34;6.28;;;3.08;;
27213;SDS011;14723;55.814;37.460;2022-12-07T00:24:40;9.82;;;2.83;;
27213;SDS011;14723;55.814;37.460;2022-12-07T00:27:46;9.52;;;3.38;;
27213;SDS011;14723;55.814;37.460;2022-12-07T00:30:54;5.53;;;2.97;;
27213;SDS011;14723;55.814;37.460;2022-12-07T00:34:04;9.82;;;3.47;;
27213;SDS011;14723;55.814;37.460;2022-12-07T00:37:10;9.63;;;3.05;;
27213;SDS011;14723;55.814;37.460;2022-12-07T00:40:15;7.97;;;2.92;;
27213;SDS011;14723;55.814;37.460;2022-12-07T00:43:21;6.85;;;2.67;;
27213;SDS011;14723;55.814;37.460;2022-12-07T00:46:28;6.97;;;3.10;;
27213;SDS011;14723;55.814;37.460;2022-12-07T00:49:34;10.45;;;3.25;;
27213;SDS011;14723;55.814;37.460;2022-12-07T00:52:39;11.40;;;3.75;;
27213;SDS011;14723;55.814;37.460;2022-12-07T00:55:45;13.82;;;3.60;;
27213;SDS011;14723;55.814;37.460;2022-12-07T00:58:51;6.90;;;2.88;;
27213;SDS011;14723;55.814;37.460;2022-12-07T01:02:00;7.85;;;3.08;;
27213;SDS011;14723;55.814;37.460;2022-12-07T01:05:06;8.88;;;3.55;;
27213;SDS011;14723;55.814;37.460;2022-12-07T01:08:12;8.05;;;3.45;;
27213;SDS011;14723;55.814;37.460;2022-12-07T01:11:18;9.57;;;3.70;;
27213;SDS011;14723;55.814;37.460;2022-12-07T01:14:24;6.10;;;2.70;;
27213;SDS011;14723;55.814;37.460;2022-12-07T01:17:33;9.18;;;3.45;;
27213;SDS011;14723;55.814;37.460;2022-12-07T01:20:39;10.15;;;3.42;;
27213;SDS011;14723;55.814;37.460;2022-12-07T01:23:44;7.05;;;2.50;;
27213;SDS011;14723;55.814;37.460;2022-12-07T01:26:49;10.68;;;3.75;;
27213;SDS011;14723;55.814;37.460;2022-12-07T01:29:55;9.07;;;3.45;;
27213;SDS011;14723;55.814;37.460;2022-12-07T01:33:03;8.20;;;2.90;;
27213;SDS011;14723;55.814;37.460;2022-12-07T01:36:13;9.52;;;4.03;;
27213;SDS011;14723;55.814;37.460;2022-12-07T01:39:19;7.97;;;3.13;;
27213;SDS011;14723;55.814;37.460;2022-12-07T01:42:25;7.03;;;3.33;;
27213;SDS011;14723;55.814;37.460;2022-12-07T01:45:36;11.90;;;3.70;;
27213;SDS011;14723;55.814;37.460;2022-12-07T01:48:45;8.88;;;3.42;;
27213;SDS011;14723;55.814;37.460;2022-12-07T01:51:51;9.48;;;3.10;;
27213;SDS011;14723;55.814;37.460;2022-12-07T01:54:57;6.82;;;2.72;;
27213;SDS011;14723;55.814;37.460;2022-12-07T01:58:05;8.52;;;3.78;;
27213;SDS011;14723;55.814;37.460;2022-12-07T02:01:12;9.50;;;3.33;;
27213;SDS011;14723;55.814;37.460;2022-12-07T02:04:20;12.13;;;3.35;;
27213;SDS011;14723;55.814;37.460;2022-12-07T02:07:26;7.78;;;3.00;;
27213;SDS011;14723;55.814;37.460;2022-12-07T02:10:33;7.30;;;3.22;;
27213;SDS011;14723;55.814;37.460;2022-12-07T02:13:39;10.45;;;4.40;;
27213;SDS011;14723;55.814;37.460;2022-12-07T02:16:51;9.88;;;3.72;;
27213;SDS011;14723;55.814;37.460;2022-12-07T02:20:09;9.95;;;3.42;;
27213;SDS011;14723;55.814;37.460;2022-12-07T02:26:50;10.75;;;3.83;;
27213;SDS011;14723;55.814;37.460;2022-12-07T02:30:03;7.10;;;2.95;;
27213;SDS011;14723;55.814;37.460;2022-12-07T02:33:10;7.63;;;2.92;;
27213;SDS011;14723;55.814;37.460;2022-12-07T02:36:18;8.48;;;3.25;;
27213;SDS011;14723;55.814;37.460;2022-12-07T02:39:28;6.53;;;3.00;;
27213;SDS011;14723;55.814;37.460;2022-12-07T02:42:37;8.93;;;3.80;;
27213;SDS011;14723;55.814;37.460;2022-12-07T02:45:46;5.82;;;2.83;;
27213;SDS011;14723;55.814;37.460;2022-12-07T02:48:52;8.20;;;3.53;;
27213;SDS011;14723;55.814;37.460;2022-12-07T02:51:58;7.93;;;3.45;;
27213;SDS011;14723;55.814;37.460;2022-12-07T02:55:04;6.57;;;3.17;;
27213;SDS011;14723;55.814;37.460;2022-12-07T02:58:14;6.07;;;2.70;;
27213;SDS011;14723;55.814;37.460;2022-12-07T03:01:28;5.22;;;2.60;;
27213;SDS011;14723;55.814;37.460;2022-12-07T03:04:38;10.00;;;2.80;;
27213;SDS011;14723;55.814;37.460;2022-12-07T03:07:49;6.55;;;3.10;;
27213;SDS011;14723;55.814;37.460;2022-12-07T03:10:57;13.02;;;3.53;;
27213;SDS011;14723;55.814;37.460;2022-12-07T03:14:04;8.63;;;3.30;;
27213;SDS011;14723;55.814;37.460;2022-12-07T03:17:17;7.07;;;2.90;;
27213;SDS011;14723;55.814;37.460;2022-12-07T03:20:23;8.63;;;2.95;;
27213;SDS011;14723;55.814;37.460;2022-12-07T03:23:30;6.30;;;2.97;;
27213;SDS011;14723;55.814;37.460;2022-12-07T03:26:38;6.40;;;2.83;;
27213;SDS011;14723;55.814;37.460;2022-12-07T03:29:44;6.95;;;3.40;;
27213;SDS011;14723;55.814;37.460;2022-12-07T03:32:56;8.60;;;3.13;;
27213;SDS011;14723;55.814;37.460;2022-12-07T03:36:03;8.95;;;3.15;;
27213;SDS011;14723;55.814;37.460;2022-12-07T03:39:12;8.98;;;3.40;;
27213;SDS011;14723;55.814;37.460;2022-12-07T03:42:22;9.60;;;3.22;;
27213;SDS011;14723;55.814;37.460;2022-12-07T03:45:31;5.35;;;2.90;;
27213;SDS011;14723;55.814;37.460;2022-12-07T03:48:41;6.28;;;3.00;;
27213;SDS011;14723;55.814;37.460;2022-12-07T03:51:51;10.38;;;3.38;;
27213;SDS011;14723;55.814;37.460;2022-12-07T03:55:00;10.35;;;3.75;;
27213;SDS011;14723;55.814;37.460;2022-12-07T03:58:08;6.88;;;2.75;;
27213;SDS011;14723;55.814;37.460;2022-12-07T04:01:14;7.13;;;2.97;;
27213;SDS011;14723;55.814;37.460;2022-12-07T04:04:22;7.20;;;2.97;;
27213;SDS011;14723;55.814;37.460;2022-12-07T04:07:28;6.25;;;3.22;;
27213;SDS011;14723;55.814;37.460;2022-12-07T04:10:33;7.25;;;2.42;;
27213;SDS011;14723;55.814;37.460;2022-12-07T04:13:39;5.68;;;2.47;;
27213;SDS011;14723;55.814;37.460;2022-12-07T04:16:57;7.18;;;2.75;;
27213;SDS011;14723;55.814;37.460;2022-12-07T04:20:07;8.95;;;3.63;;
27213;SDS011;14723;55.814;37.460;2022-12-07T04:23:12;14.77;;;4.22;;
27213;SDS011;14723;55.814;37.460;2022-12-07T04:26:17;10.20;;;3.10;;
27213;SDS011;14723;55.814;37.460;2022-12-07T04:29:23;8.27;;;3.15;;
27213;SDS011;14723;55.814;37.460;2022-12-07T04:32:29;9.88;;;3.53;;
27213;SDS011;14723;55.814;37.460;2022-12-07T04:35:37;10.85;;;3.70;;
27213;SDS011;14723;55.814;37.460;2022-12-07T04:38:42;8.57;;;3.58;;
27213;SDS011;14723;55.814;37.460;2022-12-07T04:41:48;8.25;;;4.03;;
27213;SDS011;14723;55.814;37.460;2022-12-07T04:44:53;19.92;;;7.05;;
27213;SDS011;14723;55.814;37.460;2022-12-07T04:47:59;27.73;;;11.93;;
27213;SDS011;14723;55.814;37.460;2022-12-07T04:51:07;9.77;;;3.80;;
27213;SDS011;14723;55.814;37.460;2022-12-07T04:54:12;9.18;;;4.07;;
27213;SDS011;14723;55.814;37.460;2022-12-07T04:57:18;11.00;;;3.53;;
27213;SDS011;14723;55.814;37.460;2022-12-07T05:00:23;9.73;;;3.55;;
27213;SDS011;14723;55.814;37.460;2022-12-07T05:03:29;8.88;;;3.90;;
27213;SDS011;14723;55.814;37.460;2022-12-07T05:06:37;9.27;;;3.70;;
27213;SDS011;14723;55.814;37.460;2022-12-07T05:09:42;9.60;;;3.75;;
27213;SDS011;14723;55.814;37.460;2022-12-07T05:12:48;11.32;;;3.83;;
27213;SDS011;14723;55.814;37.460;2022-12-07T05:15:53;9.40;;;3.65;;
27213;SDS011;14723;55.814;37.460;2022-12-07T05:18:58;9.18;;;3.92;;
27213;SDS011;14723;55.814;37.460;2022-12-07T05:22:06;11.52;;;4.30;;
27213;SDS011;14723;55.814;37.460;2022-12-07T05:25:12;8.68;;;3.25;;
27213;SDS011;14723;55.814;37.460;2022-12-07T05:28:18;13.05;;;4.00;;
27213;SDS011;14723;55.814;37.460;2022-12-07T05:31:24;7.95;;;3.80;;
27213;SDS011;14723;55.814;37.460;2022-12-07T05:34:30;14.43;;;5.78;;
27213;SDS011;14723;55.814;37.460;2022-12-07T05:37:38;10.95;;;4.20;;
27213;SDS011;14723;55.814;37.460;2022-12-07T05:40:43;12.48;;;3.60;;
27213;SDS011;14723;55.814;37.460;2022-12-07T05:43:48;9.73;;;3.90;;
27213;SDS011;14723;55.814;37.460;2022-12-07T05:46:54;10.45;;;3.95;;
27213;SDS011;14723;55.814;37.460;2022-12-07T05:49:59;14.05;;;3.88;;
27213;SDS011;14723;55.814;37.460;2022-12-07T05:53:07;9.68;;;3.90;;
27213;SDS011;14723;55.814;37.460;2022-12-07T05:56:13;11.30;;;4.35;;
27213;SDS011;14723;55.814;37.460;2022-12-07T05:59:18;10.63;;;3.85;;
27213;SDS011;14723;55.814;37.460;2022-12-07T06:02:29;14.10;;;4.07;;
27213;SDS011;14723;55.814;37.460;2022-12-07T06:05:35;9.43;;;3.97;;
27213;SDS011;14723;55.814;37.460;2022-12-07T06:08:43;12.15;;;4.05;;
27213;SDS011;14723;55.814;37.460;2022-12-07T06:11:48;9.98;;;3.70;;
27213;SDS011;14723;55.814;37.460;2022-12-07T06:15:06;12.45;;;5.05;;
27213;SDS011;14723;55.814;37.460;2022-12-07T06:18:12;14.27;;;4.53;;
27213;SDS011;14723;55.814;37.460;2022-12-07T06:21:17;11.30;;;4.15;;
27213;SDS011;14723;55.814;37.460;2022-12-07T06:24:26;19.25;;;4.40;;
27213;SDS011;14723;55.814;37.460;2022-12-07T06:30:37;14.20;;;4.50;;
27213;SDS011;14723;55.814;37.460;2022-12-07T06:33:43;10.18;;;4.50;;
27213;SDS011;14723;55.814;37.460;2022-12-07T06:36:49;12.10;;;4.13;;
27213;SDS011;14723;55.814;37.460;2022-12-07T06:39:58;10.82;;;4.80;;
27213;SDS011;14723;55.814;37.460;2022-12-07T06:43:04;15.55;;;4.82;;
27213;SDS011;14723;55.814;37.460;2022-12-07T06:46:10;17.17;;;5.43;;
27213;SDS011;14723;55.814;37.460;2022-12-07T06:49:16;14.13;;;4.57;;
27213;SDS011;14723;55.814;37.460;2022-12-07T06:52:21;12.48;;;5.13;;
27213;SDS011;14723;55.814;37.460;2022-12-07T06:55:29;13.18;;;5.25;;
27213;SDS011;14723;55.814;37.460;2022-12-07T06:58:35;15.25;;;5.07;;
27213;SDS011;14723;55.814;37.460;2022-12-07T07:01:40;11.23;;;5.30;;
27213;SDS011;14723;55.814;37.460;2022-12-07T07:04:46;14.20;;;5.22;;
27213;SDS011;14723;55.814;37.460;2022-12-07T07:07:52;12.50;;;5.15;;
27213;SDS011;14723;55.814;37.460;2022-12-07T07:11:20;15.07;;;4.90;;
27213;SDS011;14723;55.814;37.460;2022-12-07T07:17:30;10.55;;;5.40;;
27213;SDS011;14723;55.814;37.460;2022-12-07T07:20:36;12.00;;;5.18;;
27213;SDS011;14723;55.814;37.460;2022-12-07T07:23:41;17.05;;;5.50;;
27213;SDS011;14723;55.814;37.460;2022-12-07T07:26:50;15.63;;;5.07;;
27213;SDS011;14723;55.814;37.460;2022-12-07T07:29:55;13.45;;;5.50;;
27213;SDS011;14723;55.814;37.460;2022-12-07T07:33:01;13.02;;;5.25;;
27213;SDS011;14723;55.814;37.460;2022-12-07T07:36:07;19.10;;;5.93;;
27213;SDS011;14723;55.814;37.460;2022-12-07T07:39:13;16.85;;;5.43;;
27213;SDS011;14723;55.814;37.460;2022-12-07T07:42:21;11.63;;;6.07;;
27213;SDS011;14723;55.814;37.460;2022-12-07T07:45:27;19.63;;;5.57;;
27213;SDS011;14723;55.814;37.460;2022-12-07T07:48:33;14.63;;;6.25;;
27213;SDS011;14723;55.814;37.460;2022-12-07T07:51:38;19.77;;;5.15;;
27213;SDS011;14723;55.814;37.460;2022-12-07T07:54:43;14.13;;;5.32;;
27213;SDS011;14723;55.814;37.460;2022-12-07T07:57:51;15.23;;;5.85;;
27213;SDS011;14723;55.814;37.460;2022-12-07T08:00:57;16.58;;;5.78;;
27213;SDS011;14723;55.814;37.460;2022-12-07T08:04:08;11.75;;;5.43;;
27213;SDS011;14723;55.814;37.460;2022-12-07T08:07:13;16.73;;;5.65;;
27213;SDS011;14723;55.814;37.460;2022-12-07T08:10:19;12.65;;;5.43;;
27213;SDS011;14723;55.814;37.460;2022-12-07T08:13:27;25.08;;;6.30;;
27213;SDS011;14723;55.814;37.460;2022-12-07T08:16:33;14.20;;;6.03;;
27213;SDS011;14723;55.814;37.460;2022-12-07T08:19:38;17.85;;;6.50;;
27213;SDS011;14723;55.814;37.460;2022-12-07T08:22:44;20.67;;;6.63;;
27213;SDS011;14723;55.814;37.460;2022-12-07T08:25:49;17.23;;;5.72;;
27213;SDS011;14723;55.814;37.460;2022-12-07T08:28:57;17.42;;;6.00;;
27213;SDS011;14723;55.814;37.460;2022-12-07T08:32:02;17.45;;;5.63;;
27213;SDS011;14723;55.814;37.460;2022-12-07T08:35:10;12.90;;;5.88;;
27213;SDS011;14723;55.814;37.460;2022-12-07T08:38:16;16.40;;;6.28;;
27213;SDS011;14723;55.814;37.460;2022-12-07T08:41:21;15.95;;;6.40;;
27213;SDS011;14723;55.814;37.460;2022-12-07T08:44:29;19.67;;;6.35;;
27213;SDS011;14723;55.814;37.460;2022-12-07T08:47:35;23.08;;;7.00;;
27213;SDS011;14723;55.814;37.460;2022-12-07T08:50:41;19.40;;;5.70;;
27213;SDS011;14723;55.814;37.460;2022-12-07T08:53:50;20.73;;;6.95;;
27213;SDS011;14723;55.814;37.460;2022-12-07T08:56:56;15.00;;;5.90;;
27213;SDS011;14723;55.814;37.460;2022-12-07T09:00:05;17.05;;;5.95;;
27213;SDS011;14723;55.814;37.460;2022-12-07T09:03:11;13.73;;;6.10;;
27213;SDS011;14723;55.814;37.460;2022-12-07T09:06:16;19.83;;;6.32;;
27213;SDS011;14723;55.814;37.460;2022-12-07T09:09:22;17.77;;;5.90;;
27213;SDS011;14723;55.814;37.460;2022-12-07T09:12:28;18.35;;;7.15;;
27213;SDS011;14723;55.814;37.460;2022-12-07T09:15:36;13.15;;;5.93;;
27213;SDS011;14723;55.814;37.460;2022-12-07T09:18:41;14.57;;;6.15;;
27213;SDS011;14723;55.814;37.460;2022-12-07T09:21:47;21.65;;;6.28;;
27213;SDS011;14723;55.814;37.460;2022-12-07T09:24:52;15.05;;;6.18;;
27213;SDS011;14723;55.814;37.460;2022-12-07T09:27:58;16.17;;;5.75;;
27213;SDS011;14723;55.814;37.460;2022-12-07T09:31:06;16.83;;;6.22;;
27213;SDS011;14723;55.814;37.460;2022-12-07T09:34:30;12.32;;;5.10;;
27213;SDS011;14723;55.814;37.460;2022-12-07T09:37:35;12.55;;;5.00;;
27213;SDS011;14723;55.814;37.460;2022-12-07T09:40:41;12.02;;;5.10;;
27213;SDS011;14723;55.814;37.460;2022-12-07T09:43:46;11.55;;;5.30;;
27213;SDS011;14723;55.814;37.460;2022-12-07T09:46:55;12.98;;;5.18;;
27213;SDS011;14723;55.814;37.460;2022-12-07T09:50:03;14.52;;;5.47;;
27213;SDS011;14723;55.814;37.460;2022-12-07T09:53:09;18.42;;;5.22;;
27213;SDS011;14723;55.814;37.460;2022-12-07T09:56:18;14.57;;;5.93;;
27213;SDS011;14723;55.814;37.460;2022-12-07T09:59:24;13.00;;;5.50;;
27213;SDS011;14723;55.814;37.460;2022-12-07T10:02:40;15.48;;;5.47;;
27213;SDS011;14723;55.814;37.460;2022-12-07T10:05:49;13.52;;;5.15;;
27213;SDS011;14723;55.814;37.460;2022-12-07T10:08:55;10.70;;;4.75;;
27213;SDS011;14723;55.814;37.460;2022-12-07T10:12:02;13.27;;;5.60;;
27213;SDS011;14723;55.814;37.460;2022-12-07T10:15:08;13.70;;;5.45;;
27213;SDS011;14723;55.814;37.460;2022-12-07T10:18:19;11.73;;;5.35;;
27213;SDS011;14723;55.814;37.460;2022-12-07T10:21:26;13.70;;;4.90;;
27213;SDS011;14723;55.814;37.460;2022-12-07T10:24:31;12.90;;;5.38;;
27213;SDS011;14723;55.814;37.460;2022-12-07T10:27:39;16.67;;;6.03;;
27213;SDS011;14723;55.814;37.460;2022-12-07T10:30:48;14.32;;;5.55;;
27213;SDS011;14723;55.814;37.460;2022-12-07T10:33:58;12.88;;;5.63;;
27213;SDS011;14723;55.814;37.460;2022-12-07T10:37:13;15.27;;;5.00;;
27213;SDS011;14723;55.814;37.460;2022-12-07T10:40:29;15.98;;;6.43;;
27213;SDS011;14723;55.814;37.460;2022-12-07T10:43:35;17.90;;;5.50;;
27213;SDS011;14723;55.814;37.460;2022-12-07T10:46:43;14.35;;;5.80;;
27213;SDS011;14723;55.814;37.460;2022-12-07T10:50:00;16.42;;;5.95;;
27213;SDS011;14723;55.814;37.460;2022-12-07T10:56:34;12.82;;;6.13;;
27213;SDS011;14723;55.814;37.460;2022-12-07T10:59:50;11.70;;;5.95;;
27213;SDS011;14723;55.814;37.460;2022-12-07T11:06:24;14.35;;;5.50;;
27213;SDS011;14723;55.814;37.460;2022-12-07T11:09:47;17.42;;;5.85;;
27213;SDS011;14723;55.814;37.460;2022-12-07T11:13:17;16.38;;;6.15;;
27213;SDS011;14723;55.814;37.460;2022-12-07T11:16:35;16.63;;;7.15;;
27213;SDS011;14723;55.814;37.460;2022-12-07T11:19:47;14.88;;;6.30;;
27213;SDS011;14723;55.814;37.460;2022-12-07T11:22:59;19.00;;;6.80;;
27213;SDS011;14723;55.814;37.460;2022-12-07T11:26:10;20.20;;;6.55;;
27213;SDS011;14723;55.814;37.460;2022-12-07T11:29:24;15.30;;;6.25;;
27213;SDS011;14723;55.814;37.460;2022-12-07T11:32:38;16.00;;;6.30;;
27213;SDS011;14723;55.814;37.460;2022-12-07T11:35:51;16.67;;;5.75;;
27213;SDS011;14723;55.814;37.460;2022-12-07T11:39:02;21.25;;;7.22;;
27213;SDS011;14723;55.814;37.460;2022-12-07T11:42:09;16.70;;;6.82;;
27213;SDS011;14723;55.814;37.460;2022-12-07T11:45:19;18.50;;;6.97;;
27213;SDS011;14723;55.814;37.460;2022-12-07T11:48:28;33.55;;;7.60;;
27213;SDS011;14723;55.814;37.460;2022-12-07T11:51:36;19.55;;;7.18;;
27213;SDS011;14723;55.814;37.460;2022-12-07T11:54:45;17.35;;;7.13;;
27213;SDS011;14723;55.814;37.460;2022-12-07T11:57:54;22.92;;;7.18;;
27213;SDS011;14723;55.814;37.460;2022-12-07T12:01:08;19.42;;;6.38;;
27213;SDS011;14723;55.814;37.460;2022-12-07T12:04:20;13.57;;;6.60;;
27213;SDS011;14723;55.814;37.460;2022-12-07T12:07:27;19.23;;;6.75;;
27213;SDS011;14723;55.814;37.460;2022-12-07T12:10:58;18.92;;;7.13;;
27213;SDS011;14723;55.814;37.460;2022-12-07T12:14:16;15.60;;;6.75;;
27213;SDS011;14723;55.814;37.460;2022-12-07T12:17:45;17.50;;;6.75;;
27213;SDS011;14723;55.814;37.460;2022-12-07T12:20:54;18.42;;;6.40;;
27213;SDS011;14723;55.814;37.460;2022-12-07T12:24:02;23.70;;;9.93;;
27213;SDS011;14723;55.814;37.460;2022-12-07T12:27:15;15.43;;;6.60;;
27213;SDS011;14723;55.814;37.460;2022-12-07T12:33:30;15.02;;;6.22;;
27213;SDS011;14723;55.814;37.460;2022-12-07T12:36:43;29.85;;;7.65;;
27213;SDS011;14723;55.814;37.460;2022-12-07T12:53:19;20.08;;;7.35;;
27213;SDS011;14723;55.814;37.460;2022-12-07T12:56:33;24.73;;;7.40;;
27213;SDS011;14723;55.814;37.460;2022-12-07T12:59:41;18.70;;;7.25;;
27213;SDS011;14723;55.814;37.460;2022-12-07T13:02:50;16.45;;;7.40;;
27213;SDS011;14723;55.814;37.460;2022-12-07T13:09:20;28.52;;;8.00;;
27213;SDS011;14723;55.814;37.460;2022-12-07T13:12:27;16.02;;;7.53;;
27213;SDS011;14723;55.814;37.460;2022-12-07T13:15:33;23.33;;;8.70;;
27213;SDS011;14723;55.814;37.460;2022-12-07T13:18:40;20.70;;;7.47;;
27213;SDS011;14723;55.814;37.460;2022-12-07T13:21:46;22.10;;;7.80;;
27213;SDS011;14723;55.814;37.460;2022-12-07T13:24:57;26.08;;;7.97;;
27213;SDS011;14723;55.814;37.460;2022-12-07T13:28:08;22.17;;;7.82;;
27213;SDS011;14723;55.814;37.460;2022-12-07T13:34:36;19.48;;;7.88;;
27213;SDS011;14723;55.814;37.460;2022-12-07T13:37:42;21.15;;;7.32;;
27213;SDS011;14723;55.814;37.460;2022-12-07T13:41:01;18.45;;;7.22;;
27213;SDS011;14723;55.814;37.460;2022-12-07T13:44:08;25.42;;;8.13;;
27213;SDS011;14723;55.814;37.460;2022-12-07T13:47:16;22.05;;;8.05;;
27213;SDS011;14723;55.814;37.460;2022-12-07T13:50:23;20.50;;;8.45;;
27213;SDS011;14723;55.814;37.460;2022-12-07T13:53:29;20.25;;;7.57;;
27213;SDS011;14723;55.814;37.460;2022-12-07T13:56:37;18.15;;;7.30;;
27213;SDS011;14723;55.814;37.460;2022-12-07T13:59:43;18.70;;;7.85;;
27213;SDS011;14723;55.814;37.460;2022-12-07T14:02:54;24.15;;;8.40;;
27213;SDS011;14723;55.814;37.460;2022-12-07T14:06:06;20.25;;;8.30;;
27213;SDS011;14723;55.814;37.460;2022-12-07T14:09:17;22.02;;;8.40;;
27213;SDS011;14723;55.814;37.460;2022-12-07T14:12:25;18.35;;;7.68;;
27213;SDS011;14723;55.814;37.460;2022-12-07T14:15:31;17.88;;;7.07;;
27213;SDS011;14723;55.814;37.460;2022-12-07T14:18:38;20.65;;;7.22;;
27213;SDS011;14723;55.814;37.460;2022-12-07T14:21:44;21.50;;;7.63;;
27213;SDS011;14723;55.814;37.460;2022-12-07T14:24:49;16.80;;;7.28;;
27213;SDS011;14723;55.814;37.460;2022-12-07T14:27:58;22.23;;;8.35;;
27213;SDS011;14723;55.814;37.460;2022-12-07T14:31:07;20.73;;;7.10;;
27213;SDS011;14723;55.814;37.460;2022-12-07T14:34:24;19.08;;;7.53;;
27213;SDS011;14723;55.814;37.460;2022-12-07T14:37:30;19.27;;;7.55;;
27213;SDS011;14723;55.814;37.460;2022-12-07T14:40:35;22.83;;;7.35;;
27213;SDS011;14723;55.814;37.460;2022-12-07T14:43:43;22.70;;;7.55;;
27213;SDS011;14723;55.814;37.460;2022-12-07T14:47:09;20.42;;;7.47;;
27213;SDS011;14723;55.814;37.460;2022-12-07T14:50:36;23.70;;;7.40;;
27213;SDS011;14723;55.814;37.460;2022-12-07T14:54:02;20.73;;;7.35;;
27213;SDS011;14723;55.814;37.460;2022-12-07T14:57:09;22.17;;;7.20;;
27213;SDS011;14723;55.814;37.460;2022-12-07T15:00:18;18.50;;;6.63;;
27213;SDS011;14723;55.814;37.460;2022-12-07T15:03:24;22.45;;;7.53;;
27213;SDS011;14723;55.814;37.460;2022-12-07T15:06:29;23.80;;;7.03;;
27213;SDS011;14723;55.814;37.460;2022-12-07T15:09:35;18.15;;;7.13;;
27213;SDS011;14723;55.814;37.460;2022-12-07T15:12:40;18.70;;;7.63;;
27213;SDS011;14723;55.814;37.460;2022-12-07T15:15:48;18.23;;;8.32;;
27213;SDS011;14723;55.814;37.460;2022-12-07T15:18:54;22.65;;;7.40;;
27213;SDS011;14723;55.814;37.460;2022-12-07T15:22:22;19.95;;;7.55;;
27213;SDS011;14723;55.814;37.460;2022-12-07T15:25:27;19.05;;;7.72;;
27213;SDS011;14723;55.814;37.460;2022-12-07T15:28:33;18.30;;;7.53;;
27213;SDS011;14723;55.814;37.460;2022-12-07T15:31:41;19.13;;;8.05;;
27213;SDS011;14723;55.814;37.460;2022-12-07T15:34:57;23.73;;;8.07;;
27213;SDS011;14723;55.814;37.460;2022-12-07T15:38:04;22.73;;;8.45;;
27213;SDS011;14723;55.814;37.460;2022-12-07T15:41:10;21.13;;;7.60;;
27213;SDS011;14723;55.814;37.460;2022-12-07T15:44:15;21.45;;;8.55;;
27213;SDS011;14723;55.814;37.460;2022-12-07T15:47:36;25.23;;;8.55;;
27213;SDS011;14723;55.814;37.460;2022-12-07T15:51:02;22.77;;;8.10;;
27213;SDS011;14723;55.814;37.460;2022-12-07T15:54:08;20.88;;;8.23;;
27213;SDS011;14723;55.814;37.460;2022-12-07T15:57:14;21.10;;;7.57;;
27213;SDS011;14723;55.814;37.460;2022-12-07T16:00:26;19.85;;;7.32;;
27213;SDS011;14723;55.814;37.460;2022-12-07T16:03:33;19.92;;;7.13;;
27213;SDS011;14723;55.814;37.460;2022-12-07T16:06:39;20.17;;;7.38;;
27213;SDS011;14723;55.814;37.460;2022-12-07T16:09:45;20.38;;;7.68;;
27213;SDS011;14723;55.814;37.460;2022-12-07T16:12:51;19.63;;;7.30;;
27213;SDS011;14723;55.814;37.460;2022-12-07T16:15:56;20.13;;;7.78;;
27213;SDS011;14723;55.814;37.460;2022-12-07T16:19:05;23.95;;;7.82;;
27213;SDS011;14723;55.814;37.460;2022-12-07T16:22:10;20.30;;;8.02;;
27213;SDS011;14723;55.814;37.460;2022-12-07T16:25:16;24.58;;;8.30;;
27213;SDS011;14723;55.814;37.460;2022-12-07T16:28:22;21.77;;;8.20;;
27213;SDS011;14723;55.814;37.460;2022-12-07T16:31:27;23.95;;;8.57;;
27213;SDS011;14723;55.814;37.460;2022-12-07T16:34:35;14.95;;;7.43;;
27213;SDS011;14723;55.814;37.460;2022-12-07T16:37:41;24.40;;;8.23;;
27213;SDS011;14723;55.814;37.460;2022-12-07T16:40:46;18.17;;;7.50;;
27213;SDS011;14723;55.814;37.460;2022-12-07T16:43:52;21.23;;;8.07;;
27213;SDS011;14723;55.814;37.460;2022-12-07T16:46:58;19.30;;;7.38;;
27213;SDS011;14723;55.814;37.460;2022-12-07T16:50:07;21.77;;;8.43;;
27213;SDS011;14723;55.814;37.460;2022-12-07T16:53:13;23.85;;;8.63;;
27213;SDS011;14723;55.814;37.460;2022-12-07T16:56:19;18.02;;;7.95;;
27213;SDS011;14723;55.814;37.460;2022-12-07T16:59:24;22.17;;;7.93;;
27213;SDS011;14723;55.814;37.460;2022-12-07T17:02:30;21.02;;;7.47;;
27213;SDS011;14723;55.814;37.460;2022-12-07T17:05:39;20.77;;;7.95;;
27213;SDS011;14723;55.814;37.460;2022-12-07T17:08:46;20.63;;;7.68;;
27213;SDS011;14723;55.814;37.460;2022-12-07T17:11:51;17.05;;;7.35;;
27213;SDS011;14723;55.814;37.460;2022-12-07T17:14:57;22.30;;;7.57;;
27213;SDS011;14723;55.814;37.460;2022-12-07T17:18:14;25.85;;;8.40;;
27213;SDS011;14723;55.814;37.460;2022-12-07T17:21:23;20.40;;;8.05;;
27213;SDS011;14723;55.814;37.460;2022-12-07T17:24:29;23.73;;;7.20;;
27213;SDS011;14723;55.814;37.460;2022-12-07T17:27:35;17.25;;;7.20;;
27213;SDS011;14723;55.814;37.460;2022-12-07T17:30:40;18.77;;;7.25;;
27213;SDS011;14723;55.814;37.460;2022-12-07T17:33:45;24.38;;;7.82;;
27213;SDS011;14723;55.814;37.460;2022-12-07T17:36:53;21.65;;;7.97;;
27213;SDS011;14723;55.814;37.460;2022-12-07T17:39:59;23.52;;;7.57;;
27213;SDS011;14723;55.814;37.460;2022-12-07T17:43:05;22.05;;;7.88;;
27213;SDS011;14723;55.814;37.460;2022-12-07T17:46:11;25.73;;;7.95;;
27213;SDS011;14723;55.814;37.460;2022-12-07T17:49:17;20.08;;;6.85;;
27213;SDS011;14723;55.814;37.460;2022-12-07T17:52:24;19.40;;;7.65;;
27213;SDS011;14723;55.814;37.460;2022-12-07T17:55:42;15.88;;;7.32;;
27213;SDS011;14723;55.814;37.460;2022-12-07T17:59:07;22.40;;;8.77;;
27213;SDS011;14723;55.814;37.460;2022-12-07T18:02:13;21.00;;;7.60;;
27213;SDS011;14723;55.814;37.460;2022-12-07T18:05:18;22.42;;;7.82;;
27213;SDS011;14723;55.814;37.460;2022-12-07T18:08:26;19.23;;;7.28;;
27213;SDS011;14723;55.814;37.460;2022-12-07T18:11:32;18.45;;;6.82;;
27213;SDS011;14723;55.814;37.460;2022-12-07T18:14:37;17.23;;;6.45;;
27213;SDS011;14723;55.814;37.460;2022-12-07T18:17:43;22.80;;;7.85;;
27213;SDS011;14723;55.814;37.460;2022-12-07T18:20:48;20.33;;;7.72;;
27213;SDS011;14723;55.814;37.460;2022-12-07T18:24:11;17.73;;;7.20;;
27213;SDS011;14723;55.814;37.460;2022-12-07T18:27:16;24.73;;;7.75;;
27213;SDS011;14723;55.814;37.460;2022-12-07T18:30:22;18.63;;;7.25;;
27213;SDS011;14723;55.814;37.460;2022-12-07T18:33:47;20.45;;;6.85;;
27213;SDS011;14723;55.814;37.460;2022-12-07T18:36:53;19.50;;;6.82;;
27213;SDS011;14723;55.814;37.460;2022-12-07T18:40:01;16.77;;;6.80;;
27213;SDS011;14723;55.814;37.460;2022-12-07T18:46:12;18.42;;;6.57;;
27213;SDS011;14723;55.814;37.460;2022-12-07T18:49:18;24.20;;;7.78;;
27213;SDS011;14723;55.814;37.460;2022-12-07T18:52:24;17.90;;;6.82;;
27213;SDS011;14723;55.814;37.460;2022-12-07T18:55:34;18.58;;;6.95;;
27213;SDS011;14723;55.814;37.460;2022-12-07T18:58:39;22.38;;;7.50;;
27213;SDS011;14723;55.814;37.460;2022-12-07T19:02:05;15.48;;;6.53;;
27213;SDS011;14723;55.814;37.460;2022-12-07T19:05:11;19.00;;;7.22;;
27213;SDS011;14723;55.814;37.460;2022-12-07T19:08:16;23.48;;;7.20;;